sensor_id;sensor_type;location;lat;lon;timestamp;pressure;altitude;pressure_sealevel;temperature;humidity
706;BME280;21234;48.690;9.016;2023-07-31T00:01:03;96217.78;;;15.05;84.06
706;BME280;21234;48.690;9.016;2023-07-31T00:03:31;96223.81;;;15.02;89.60
706;BME280;21234;48.690;9.016;2023-07-31T00:05:58;96222.19;;;15.01;87.25
706;BME280;21234;48.690;9.016;2023-07-31T00:08:24;96227.44;;;14.92;85.14
706;BME280;21234;48.690;9.016;2023-07-31T00:10:52;96224.44;;;14.84;85.68
706;BME280;21234;48.690;9.016;2023-07-31T00:13:19;96220.34;;;14.76;86.29
706;BME280;21234;48.690;9.016;2023-07-31T00:15:45;96226.94;;;14.75;86.54
706;BME280;21234;48.690;9.016;2023-07-31T00:18:12;96238.97;;;14.79;87.47
706;BME280;21234;48.690;9.016;2023-07-31T00:20:40;96241.69;;;14.79;86.52
706;BME280;21234;48.690;9.016;2023-07-31T00:23:07;96242.50;;;14.79;86.74
706;BME280;21234;48.690;9.016;2023-07-31T00:25:33;96244.72;;;14.77;87.58
706;BME280;21234;48.690;9.016;2023-07-31T00:28:00;96232.13;;;14.76;87.47
706;BME280;21234;48.690;9.016;2023-07-31T00:30:27;96234.59;;;14.78;89.42
706;BME280;21234;48.690;9.016;2023-07-31T00:32:53;96226.38;;;14.78;87.47
706;BME280;21234;48.690;9.016;2023-07-31T00:35:20;96226.94;;;14.75;91.32
706;BME280;21234;48.690;9.016;2023-07-31T00:37:48;96234.03;;;14.71;91.73
706;BME280;21234;48.690;9.016;2023-07-31T00:40:15;96222.56;;;14.69;92.21
706;BME280;21234;48.690;9.016;2023-07-31T00:42:41;96220.38;;;14.66;90.73
706;BME280;21234;48.690;9.016;2023-07-31T00:45:09;96229.94;;;14.63;92.91
706;BME280;21234;48.690;9.016;2023-07-31T00:47:35;96210.25;;;14.66;89.70
706;BME280;21234;48.690;9.016;2023-07-31T00:50:03;96209.44;;;14.66;89.15
706;BME280;21234;48.690;9.016;2023-07-31T00:52:29;96211.88;;;14.67;89.74
706;BME280;21234;48.690;9.016;2023-07-31T00:54:58;96199.63;;;14.55;88.96
706;BME280;21234;48.690;9.016;2023-07-31T00:57:24;96206.47;;;14.52;88.84
706;BME280;21234;48.690;9.016;2023-07-31T00:59:51;96205.09;;;14.50;89.48
706;BME280;21234;48.690;9.016;2023-07-31T01:02:18;96204.00;;;14.61;91.36
706;BME280;21234;48.690;9.016;2023-07-31T01:04:45;96207.56;;;14.56;90.43
706;BME280;21234;48.690;9.016;2023-07-31T01:07:18;96203.47;;;14.49;88.81
706;BME280;21234;48.690;9.016;2023-07-31T01:09:59;96195.25;;;14.43;88.66
706;BME280;21234;48.690;9.016;2023-07-31T01:12:31;96200.72;;;14.49;88.81
706;BME280;21234;48.690;9.016;2023-07-31T01:15:04;96199.09;;;14.48;90.45
706;BME280;21234;48.690;9.016;2023-07-31T01:17:31;96203.19;;;14.50;89.81
706;BME280;21234;48.690;9.016;2023-07-31T01:20:01;96201.28;;;14.45;89.14
706;BME280;21234;48.690;9.016;2023-07-31T01:28:30;96192.78;;;14.52;89.34
706;BME280;21234;48.690;9.016;2023-07-31T01:31:00;96184.31;;;14.54;89.68
706;BME280;21234;48.690;9.016;2023-07-31T01:33:29;96181.56;;;14.54;92.20
706;BME280;21234;48.690;9.016;2023-07-31T01:35:56;96179.94;;;14.53;92.70
706;BME280;21234;48.690;9.016;2023-07-31T01:38:23;96185.41;;;14.42;93.43
706;BME280;21234;48.690;9.016;2023-07-31T01:40:51;96188.13;;;14.37;93.39
706;BME280;21234;48.690;9.016;2023-07-31T01:43:18;96177.19;;;14.32;95.36
706;BME280;21234;48.690;9.016;2023-07-31T01:45:46;96188.97;;;14.28;93.56
706;BME280;21234;48.690;9.016;2023-07-31T01:48:13;96187.63;;;14.25;94.76
706;BME280;21234;48.690;9.016;2023-07-31T01:50:39;96180.78;;;14.23;93.61
706;BME280;21234;48.690;9.016;2023-07-31T01:53:06;96179.13;;;14.17;94.96
706;BME280;21234;48.690;9.016;2023-07-31T01:55:33;96178.59;;;14.15;96.08
706;BME280;21234;48.690;9.016;2023-07-31T01:57:59;96178.59;;;14.15;95.22
706;BME280;21234;48.690;9.016;2023-07-31T02:00:26;96170.41;;;14.09;96.17
706;BME280;21234;48.690;9.016;2023-07-31T02:02:54;96173.41;;;13.98;96.78
706;BME280;21234;48.690;9.016;2023-07-31T02:05:21;96169.06;;;13.92;96.01
706;BME280;21234;48.690;9.016;2023-07-31T02:07:47;96162.19;;;13.99;95.84
706;BME280;21234;48.690;9.016;2023-07-31T02:10:14;96156.72;;;14.04;96.08
706;BME280;21234;48.690;9.016;2023-07-31T02:12:42;96147.19;;;13.97;95.57
706;BME280;21234;48.690;9.016;2023-07-31T02:15:09;96147.19;;;13.92;94.91
706;BME280;21234;48.690;9.016;2023-07-31T02:17:36;96146.38;;;13.96;93.93
706;BME280;21234;48.690;9.016;2023-07-31T02:20:05;96142.25;;;14.04;93.68
706;BME280;21234;48.690;9.016;2023-07-31T02:22:32;96145.78;;;14.09;93.76
706;BME280;21234;48.690;9.016;2023-07-31T02:24:59;96134.84;;;14.15;94.23
706;BME280;21234;48.690;9.016;2023-07-31T02:27:25;96139.50;;;14.14;92.67
706;BME280;21234;48.690;9.016;2023-07-31T02:29:53;96129.94;;;14.11;91.57
706;BME280;21234;48.690;9.016;2023-07-31T02:32:19;96129.38;;;14.15;91.81
706;BME280;21234;48.690;9.016;2023-07-31T02:34:46;96128.28;;;14.21;92.31
706;BME280;21234;48.690;9.016;2023-07-31T02:37:14;96131.03;;;14.21;91.65
706;BME280;21234;48.690;9.016;2023-07-31T02:39:41;96131.84;;;14.21;91.13
706;BME280;21234;48.690;9.016;2023-07-31T02:42:07;96126.66;;;14.25;91.78
706;BME280;21234;48.690;9.016;2023-07-31T02:44:34;96129.13;;;14.16;91.37
706;BME280;21234;48.690;9.016;2023-07-31T02:47:00;96126.09;;;14.18;90.79
706;BME280;21234;48.690;9.016;2023-07-31T02:49:28;96131.84;;;14.11;92.86
706;BME280;21234;48.690;9.016;2023-07-31T02:51:55;96117.91;;;14.12;92.72
706;BME280;21234;48.690;9.016;2023-07-31T02:54:23;96114.63;;;14.10;90.29
706;BME280;21234;48.690;9.016;2023-07-31T02:56:50;96122.81;;;14.16;89.42
706;BME280;21234;48.690;9.016;2023-07-31T02:59:17;96114.34;;;14.17;89.08
706;BME280;21234;48.690;9.016;2023-07-31T03:01:43;96111.88;;;14.16;88.99
706;BME280;21234;48.690;9.016;2023-07-31T03:04:10;96111.63;;;14.22;90.19
706;BME280;21234;48.690;9.016;2023-07-31T03:06:37;96117.06;;;14.22;89.78
706;BME280;21234;48.690;9.016;2023-07-31T03:09:03;96110.25;;;14.20;90.37
706;BME280;21234;48.690;9.016;2023-07-31T03:11:31;96116.53;;;14.20;89.98
706;BME280;21234;48.690;9.016;2023-07-31T03:13:58;96112.44;;;14.23;88.96
706;BME280;21234;48.690;9.016;2023-07-31T03:16:25;96120.09;;;14.26;88.69
706;BME280;21234;48.690;9.016;2023-07-31T03:18:51;96127.75;;;14.19;89.42
706;BME280;21234;48.690;9.016;2023-07-31T03:21:18;96123.66;;;14.16;91.69
706;BME280;21234;48.690;9.016;2023-07-31T03:23:45;96122.28;;;14.13;90.86
706;BME280;21234;48.690;9.016;2023-07-31T03:26:11;96120.38;;;14.14;90.13
706;BME280;21234;48.690;9.016;2023-07-31T03:28:40;96120.09;;;14.16;90.61
706;BME280;21234;48.690;9.016;2023-07-31T03:31:06;96119.81;;;14.17;90.94
706;BME280;21234;48.690;9.016;2023-07-31T03:33:34;96121.47;;;14.13;91.63
706;BME280;21234;48.690;9.016;2023-07-31T03:36:00;96122.84;;;14.10;91.19
706;BME280;21234;48.690;9.016;2023-07-31T03:38:27;96123.38;;;14.07;91.42
706;BME280;21234;48.690;9.016;2023-07-31T03:40:54;96132.13;;;14.09;92.53
706;BME280;21234;48.690;9.016;2023-07-31T03:43:21;96133.50;;;14.07;90.91
706;BME280;21234;48.690;9.016;2023-07-31T03:45:49;96128.28;;;14.05;90.60
706;BME280;21234;48.690;9.016;2023-07-31T03:48:16;96123.38;;;14.07;89.78
706;BME280;21234;48.690;9.016;2023-07-31T03:50:43;96123.38;;;14.18;91.11
706;BME280;21234;48.690;9.016;2023-07-31T03:53:10;96125.56;;;14.21;90.88
706;BME280;21234;48.690;9.016;2023-07-31T03:55:37;96129.09;;;14.21;89.90
706;BME280;21234;48.690;9.016;2023-07-31T03:58:04;96120.91;;;14.21;89.45
706;BME280;21234;48.690;9.016;2023-07-31T04:00:30;96119.53;;;14.29;89.52
706;BME280;21234;48.690;9.016;2023-07-31T04:02:58;96122.78;;;14.31;89.00
706;BME280;21234;48.690;9.016;2023-07-31T04:05:26;96126.06;;;14.33;88.23
706;BME280;21234;48.690;9.016;2023-07-31T04:07:52;96127.69;;;14.34;89.05
706;BME280;21234;48.690;9.016;2023-07-31T04:10:19;96118.41;;;14.35;90.38
706;BME280;21234;48.690;9.016;2023-07-31T04:12:46;96124.69;;;14.45;88.88
706;BME280;21234;48.690;9.016;2023-07-31T04:15:12;96122.22;;;14.49;90.02
706;BME280;21234;48.690;9.016;2023-07-31T04:17:39;96120.31;;;14.55;90.33
706;BME280;21234;48.690;9.016;2023-07-31T04:20:08;96117.31;;;14.46;90.82
706;BME280;21234;48.690;9.016;2023-07-31T04:22:35;96108.56;;;14.49;90.09
706;BME280;21234;48.690;9.016;2023-07-31T04:25:02;96113.75;;;14.51;87.72
706;BME280;21234;48.690;9.016;2023-07-31T04:27:29;96117.56;;;14.55;89.55
706;BME280;21234;48.690;9.016;2023-07-31T04:29:55;96111.00;;;14.56;90.08
706;BME280;21234;48.690;9.016;2023-07-31T04:32:22;96117.56;;;14.55;91.23
706;BME280;21234;48.690;9.016;2023-07-31T04:34:49;96117.84;;;14.53;91.64
706;BME280;21234;48.690;9.016;2023-07-31T04:37:17;96124.41;;;14.52;90.12
706;BME280;21234;48.690;9.016;2023-07-31T04:39:43;96118.09;;;14.57;90.59
706;BME280;21234;48.690;9.016;2023-07-31T04:42:10;96118.09;;;14.62;90.81
706;BME280;21234;48.690;9.016;2023-07-31T04:44:37;96108.75;;;14.63;92.22
706;BME280;21234;48.690;9.016;2023-07-31T04:47:04;96119.19;;;14.61;90.01
706;BME280;21234;48.690;9.016;2023-07-31T04:49:31;96117.22;;;14.66;90.00
706;BME280;21234;48.690;9.016;2023-07-31T04:51:58;96113.13;;;14.64;88.52
706;BME280;21234;48.690;9.016;2023-07-31T04:54:31;96113.41;;;14.67;87.67
706;BME280;21234;48.690;9.016;2023-07-31T04:56:58;96116.13;;;14.72;89.90
706;BME280;21234;48.690;9.016;2023-07-31T04:59:24;96111.19;;;14.74;90.76
706;BME280;21234;48.690;9.016;2023-07-31T05:01:51;96109.53;;;14.73;89.70
706;BME280;21234;48.690;9.016;2023-07-31T05:04:18;96113.09;;;14.79;89.79
706;BME280;21234;48.690;9.016;2023-07-31T05:06:44;96114.44;;;14.82;89.87
706;BME280;21234;48.690;9.016;2023-07-31T05:09:11;96112.25;;;14.84;90.64
706;BME280;21234;48.690;9.016;2023-07-31T05:11:40;96106.22;;;14.87;90.99
706;BME280;21234;48.690;9.016;2023-07-31T05:14:08;96107.56;;;14.89;89.45
706;BME280;21234;48.690;9.016;2023-07-31T05:16:35;96112.19;;;14.94;89.86
706;BME280;21234;48.690;9.016;2023-07-31T05:19:01;96115.44;;;15.01;90.69
706;BME280;21234;48.690;9.016;2023-07-31T05:21:28;96114.03;;;15.03;91.18
706;BME280;21234;48.690;9.016;2023-07-31T05:23:55;96115.44;;;15.01;86.05
706;BME280;21234;48.690;9.016;2023-07-31T05:26:21;96111.03;;;15.05;87.11
706;BME280;21234;48.690;9.016;2023-07-31T05:28:49;96116.19;;;15.11;85.58
706;BME280;21234;48.690;9.016;2023-07-31T05:31:16;96122.44;;;15.22;87.11
706;BME280;21234;48.690;9.016;2023-07-31T05:33:43;96115.00;;;15.28;86.58
706;BME280;21234;48.690;9.016;2023-07-31T05:36:09;96124.56;;;15.30;85.20
706;BME280;21234;48.690;9.016;2023-07-31T05:38:36;96125.63;;;15.34;84.78
706;BME280;21234;48.690;9.016;2023-07-31T05:41:03;96115.22;;;15.36;85.00
706;BME280;21234;48.690;9.016;2023-07-31T05:43:29;96111.59;;;15.46;85.15
706;BME280;21234;48.690;9.016;2023-07-31T05:45:57;96124.44;;;15.51;84.51
706;BME280;21234;48.690;9.016;2023-07-31T05:48:24;96123.88;;;15.59;84.85
706;BME280;21234;48.690;9.016;2023-07-31T05:50:51;96115.59;;;15.64;83.11
706;BME280;21234;48.690;9.016;2023-07-31T05:53:18;96107.34;;;15.69;82.63
706;BME280;21234;48.690;9.016;2023-07-31T05:55:44;96106.19;;;15.75;83.93
706;BME280;21234;48.690;9.016;2023-07-31T05:58:11;96099.00;;;15.84;83.06
706;BME280;21234;48.690;9.016;2023-07-31T06:00:38;96104.16;;;15.91;84.55
706;BME280;21234;48.690;9.016;2023-07-31T06:03:06;96108.03;;;15.85;80.58
706;BME280;21234;48.690;9.016;2023-07-31T06:05:32;96112.41;;;15.86;82.15
706;BME280;21234;48.690;9.016;2023-07-31T06:07:59;96107.47;;;15.88;82.17
706;BME280;21234;48.690;9.016;2023-07-31T06:10:26;96111.78;;;15.94;82.77
706;BME280;21234;48.690;9.016;2023-07-31T06:12:53;96107.94;;;15.95;82.56
706;BME280;21234;48.690;9.016;2023-07-31T06:15:20;96110.63;;;16.00;83.77
706;BME280;21234;48.690;9.016;2023-07-31T06:17:47;96102.66;;;16.03;81.82
706;BME280;21234;48.690;9.016;2023-07-31T06:20:15;96097.41;;;16.07;81.86
706;BME280;21234;48.690;9.016;2023-07-31T06:22:41;96090.25;;;16.11;79.65
706;BME280;21234;48.690;9.016;2023-07-31T06:25:08;96092.41;;;16.14;79.53
706;BME280;21234;48.690;9.016;2023-07-31T06:27:35;96103.38;;;16.14;79.67
706;BME280;21234;48.690;9.016;2023-07-31T06:30:02;96103.56;;;16.23;81.31
706;BME280;21234;48.690;9.016;2023-07-31T06:32:28;96098.81;;;16.28;79.40
706;BME280;21234;48.690;9.016;2023-07-31T06:34:55;96110.72;;;16.48;79.92
706;BME280;21234;48.690;9.016;2023-07-31T06:37:23;96105.84;;;16.63;79.01
706;BME280;21234;48.690;9.016;2023-07-31T06:39:50;96103.97;;;16.88;78.46
706;BME280;21234;48.690;9.016;2023-07-31T06:42:16;96101.56;;;17.00;76.59
706;BME280;21234;48.690;9.016;2023-07-31T06:44:43;96097.81;;;17.15;76.64
706;BME280;21234;48.690;9.016;2023-07-31T06:47:10;96099.06;;;17.22;76.95
706;BME280;21234;48.690;9.016;2023-07-31T06:49:36;96100.41;;;17.43;72.12
706;BME280;21234;48.690;9.016;2023-07-31T06:52:03;96110.22;;;17.68;74.07
706;BME280;21234;48.690;9.016;2023-07-31T06:54:32;96108.13;;;17.60;74.34
706;BME280;21234;48.690;9.016;2023-07-31T06:56:58;96100.72;;;17.42;73.62
706;BME280;21234;48.690;9.016;2023-07-31T06:59:25;96114.81;;;17.35;75.01
706;BME280;21234;48.690;9.016;2023-07-31T07:01:52;96110.38;;;17.21;73.35
706;BME280;21234;48.690;9.016;2023-07-31T07:04:18;96103.38;;;17.28;75.56
706;BME280;21234;48.690;9.016;2023-07-31T07:06:45;96108.28;;;17.31;74.04
706;BME280;21234;48.690;9.016;2023-07-31T07:09:12;96110.97;;;17.36;73.33
706;BME280;21234;48.690;9.016;2023-07-31T07:11:40;96103.41;;;17.47;73.16
706;BME280;21234;48.690;9.016;2023-07-31T07:14:06;96102.91;;;17.59;73.16
706;BME280;21234;48.690;9.016;2023-07-31T07:16:33;96107.09;;;17.75;72.09
706;BME280;21234;48.690;9.016;2023-07-31T07:19:00;96099.84;;;17.98;67.91
706;BME280;21234;48.690;9.016;2023-07-31T07:21:26;96100.72;;;18.12;69.00
706;BME280;21234;48.690;9.016;2023-07-31T07:23:53;96093.28;;;18.12;68.84
706;BME280;21234;48.690;9.016;2023-07-31T07:26:20;96087.03;;;18.21;67.16
706;BME280;21234;48.690;9.016;2023-07-31T07:28:48;96097.81;;;18.03;67.67
706;BME280;21234;48.690;9.016;2023-07-31T07:31:14;96083.50;;;17.88;69.09
706;BME280;21234;48.690;9.016;2023-07-31T07:33:41;96087.69;;;17.85;69.82
706;BME280;21234;48.690;9.016;2023-07-31T07:36:08;96088.16;;;17.73;69.56
706;BME280;21234;48.690;9.016;2023-07-31T07:38:35;96081.25;;;17.76;70.71
706;BME280;21234;48.690;9.016;2023-07-31T07:41:02;96088.09;;;17.92;69.17
706;BME280;21234;48.690;9.016;2023-07-31T07:43:29;96086.88;;;18.31;69.61
706;BME280;21234;48.690;9.016;2023-07-31T07:45:57;96089.38;;;18.60;66.41
706;BME280;21234;48.690;9.016;2023-07-31T07:48:23;96084.88;;;18.64;65.68
706;BME280;21234;48.690;9.016;2023-07-31T07:50:50;96074.88;;;18.95;64.79
706;BME280;21234;48.690;9.016;2023-07-31T07:53:17;96083.06;;;19.23;63.63
706;BME280;21234;48.690;9.016;2023-07-31T07:55:44;96074.34;;;19.07;63.82
706;BME280;21234;48.690;9.016;2023-07-31T07:58:10;96078.19;;;19.69;65.45
706;BME280;21234;48.690;9.016;2023-07-31T08:00:37;96075.81;;;20.30;64.43
706;BME280;21234;48.690;9.016;2023-07-31T08:03:05;96074.44;;;20.41;58.57
706;BME280;21234;48.690;9.016;2023-07-31T08:05:32;96081.03;;;20.62;60.52
706;BME280;21234;48.690;9.016;2023-07-31T08:07:59;96073.59;;;20.71;57.50
706;BME280;21234;48.690;9.016;2023-07-31T08:10:26;96074.13;;;20.42;58.07
706;BME280;21234;48.690;9.016;2023-07-31T08:12:52;96066.66;;;20.43;58.27
706;BME280;21234;48.690;9.016;2023-07-31T08:15:19;96068.16;;;20.58;59.31
706;BME280;21234;48.690;9.016;2023-07-31T08:17:46;96058.53;;;20.95;58.74
706;BME280;21234;48.690;9.016;2023-07-31T08:20:14;96066.25;;;21.24;57.34
706;BME280;21234;48.690;9.016;2023-07-31T08:22:41;96065.25;;;21.20;53.84
706;BME280;21234;48.690;9.016;2023-07-31T08:25:08;96063.81;;;21.22;54.91
706;BME280;21234;48.690;9.016;2023-07-31T08:27:34;96064.66;;;21.49;55.12
706;BME280;21234;48.690;9.016;2023-07-31T08:30:01;96062.69;;;21.49;54.89
706;BME280;21234;48.690;9.016;2023-07-31T08:32:28;96054.75;;;21.73;54.24
706;BME280;21234;48.690;9.016;2023-07-31T08:34:54;96062.53;;;21.45;52.44
706;BME280;21234;48.690;9.016;2023-07-31T08:37:22;96060.25;;;21.91;55.50
706;BME280;21234;48.690;9.016;2023-07-31T08:39:49;96053.72;;;22.12;54.21
706;BME280;21234;48.690;9.016;2023-07-31T08:42:16;96044.00;;;21.55;54.50
706;BME280;21234;48.690;9.016;2023-07-31T08:44:43;96039.53;;;21.02;55.01
706;BME280;21234;48.690;9.016;2023-07-31T08:47:10;96036.13;;;20.48;57.12
706;BME280;21234;48.690;9.016;2023-07-31T08:49:38;96038.84;;;20.08;57.90
706;BME280;21234;48.690;9.016;2023-07-31T08:52:06;96047.84;;;19.69;57.92
706;BME280;21234;48.690;9.016;2023-07-31T08:54:34;96051.78;;;19.55;59.84
706;BME280;21234;48.690;9.016;2023-07-31T08:57:01;96049.06;;;19.41;61.37
706;BME280;21234;48.690;9.016;2023-07-31T08:59:29;96049.78;;;19.33;61.88
706;BME280;21234;48.690;9.016;2023-07-31T09:02:00;96053.06;;;19.35;62.95
706;BME280;21234;48.690;9.016;2023-07-31T09:04:30;96036.03;;;19.19;61.00
706;BME280;21234;48.690;9.016;2023-07-31T09:07:00;96025.84;;;19.20;62.76
706;BME280;21234;48.690;9.016;2023-07-31T09:09:28;96024.28;;;19.50;64.27
706;BME280;21234;48.690;9.016;2023-07-31T09:11:57;96027.19;;;19.44;62.19
706;BME280;21234;48.690;9.016;2023-07-31T09:14:25;96013.28;;;19.94;60.25
706;BME280;21234;48.690;9.016;2023-07-31T09:16:53;96016.53;;;20.67;59.94
706;BME280;21234;48.690;9.016;2023-07-31T09:19:27;96021.13;;;20.89;58.31
706;BME280;21234;48.690;9.016;2023-07-31T09:21:53;96024.06;;;20.92;57.56
706;BME280;21234;48.690;9.016;2023-07-31T09:24:27;96022.25;;;20.70;56.13
706;BME280;21234;48.690;9.016;2023-07-31T09:26:57;96017.31;;;20.59;56.19
706;BME280;21234;48.690;9.016;2023-07-31T09:29:25;96028.66;;;20.49;56.76
706;BME280;21234;48.690;9.016;2023-07-31T09:31:53;96027.94;;;20.34;59.22
706;BME280;21234;48.690;9.016;2023-07-31T09:34:21;96028.94;;;20.07;59.42
706;BME280;21234;48.690;9.016;2023-07-31T09:36:54;96019.72;;;19.90;59.12
706;BME280;21234;48.690;9.016;2023-07-31T09:39:22;96014.00;;;20.08;61.48
706;BME280;21234;48.690;9.016;2023-07-31T09:41:54;96013.19;;;20.08;58.88
706;BME280;21234;48.690;9.016;2023-07-31T09:44:37;95998.03;;;20.28;58.02
706;BME280;21234;48.690;9.016;2023-07-31T09:47:05;95980.16;;;20.82;60.09
706;BME280;21234;48.690;9.016;2023-07-31T09:49:32;95981.84;;;21.00;57.91
706;BME280;21234;48.690;9.016;2023-07-31T09:51:58;95986.19;;;20.84;57.04
706;BME280;21234;48.690;9.016;2023-07-31T09:54:25;95979.25;;;20.38;55.96
706;BME280;21234;48.690;9.016;2023-07-31T09:56:52;95981.25;;;20.47;61.77
706;BME280;21234;48.690;9.016;2023-07-31T09:59:20;95974.50;;;20.87;55.48
706;BME280;21234;48.690;9.016;2023-07-31T10:01:49;95972.75;;;21.08;58.05
706;BME280;21234;48.690;9.016;2023-07-31T10:04:17;95968.00;;;20.74;55.42
706;BME280;21234;48.690;9.016;2023-07-31T10:06:46;95965.72;;;20.94;59.22
706;BME280;21234;48.690;9.016;2023-07-31T10:09:16;95952.41;;;20.96;56.41
706;BME280;21234;48.690;9.016;2023-07-31T10:11:47;95958.59;;;21.19;56.16
706;BME280;21234;48.690;9.016;2023-07-31T10:14:17;95959.06;;;21.55;55.99
706;BME280;21234;48.690;9.016;2023-07-31T10:16:44;95954.75;;;21.92;56.80
706;BME280;21234;48.690;9.016;2023-07-31T10:19:13;95955.81;;;22.26;53.63
706;BME280;21234;48.690;9.016;2023-07-31T10:21:42;95944.00;;;21.99;52.40
706;BME280;21234;48.690;9.016;2023-07-31T10:24:09;95941.06;;;22.42;54.05
706;BME280;21234;48.690;9.016;2023-07-31T10:26:37;95946.38;;;22.86;51.13
706;BME280;21234;48.690;9.016;2023-07-31T10:29:05;95943.69;;;22.98;51.29
706;BME280;21234;48.690;9.016;2023-07-31T10:31:34;95929.16;;;23.01;49.95
706;BME280;21234;48.690;9.016;2023-07-31T10:34:01;95938.00;;;23.36;51.35
706;BME280;21234;48.690;9.016;2023-07-31T10:36:29;95935.28;;;23.81;50.97
706;BME280;21234;48.690;9.016;2023-07-31T10:38:56;95931.41;;;24.06;50.06
706;BME280;21234;48.690;9.016;2023-07-31T10:41:28;95937.75;;;23.95;47.90
706;BME280;21234;48.690;9.016;2023-07-31T10:43:57;95932.91;;;23.59;47.83
706;BME280;21234;48.690;9.016;2023-07-31T10:46:24;95942.63;;;23.44;47.65
706;BME280;21234;48.690;9.016;2023-07-31T10:48:57;95929.94;;;23.43;47.47
706;BME280;21234;48.690;9.016;2023-07-31T10:51:33;95929.19;;;23.55;47.75
706;BME280;21234;48.690;9.016;2023-07-31T10:54:10;95932.22;;;23.95;47.60
706;BME280;21234;48.690;9.016;2023-07-31T10:56:38;95928.13;;;23.26;46.75
706;BME280;21234;48.690;9.016;2023-07-31T10:59:05;95929.50;;;22.99;50.67
706;BME280;21234;48.690;9.016;2023-07-31T11:01:49;95931.22;;;22.83;48.68
706;BME280;21234;48.690;9.016;2023-07-31T11:04:22;95930.91;;;22.85;50.13
706;BME280;21234;48.690;9.016;2023-07-31T11:06:56;95925.31;;;22.64;50.24
706;BME280;21234;48.690;9.016;2023-07-31T11:09:27;95922.69;;;22.38;50.45
706;BME280;21234;48.690;9.016;2023-07-31T11:11:55;95923.63;;;22.12;51.45
706;BME280;21234;48.690;9.016;2023-07-31T11:14:22;95921.56;;;21.92;53.57
706;BME280;21234;48.690;9.016;2023-07-31T11:16:50;95925.16;;;21.84;53.70
706;BME280;21234;48.690;9.016;2023-07-31T11:19:21;95931.41;;;21.64;53.17
706;BME280;21234;48.690;9.016;2023-07-31T11:21:48;95922.00;;;21.48;53.86
706;BME280;21234;48.690;9.016;2023-07-31T11:24:16;95930.47;;;21.42;54.21
706;BME280;21234;48.690;9.016;2023-07-31T11:26:49;95927.53;;;21.48;55.32
706;BME280;21234;48.690;9.016;2023-07-31T11:29:15;95925.09;;;21.46;54.60
706;BME280;21234;48.690;9.016;2023-07-31T11:31:42;95914.88;;;21.38;55.06
706;BME280;21234;48.690;9.016;2023-07-31T11:34:09;95930.00;;;21.40;56.25
706;BME280;21234;48.690;9.016;2023-07-31T11:36:36;95925.28;;;21.41;58.58
706;BME280;21234;48.690;9.016;2023-07-31T11:39:07;95931.78;;;21.36;56.01
706;BME280;21234;48.690;9.016;2023-07-31T11:41:35;95927.06;;;21.11;54.77
706;BME280;21234;48.690;9.016;2023-07-31T11:44:02;95919.25;;;21.04;55.26
706;BME280;21234;48.690;9.016;2023-07-31T11:46:30;95912.28;;;21.07;56.96
706;BME280;21234;48.690;9.016;2023-07-31T11:48:59;95914.38;;;21.10;58.14
706;BME280;21234;48.690;9.016;2023-07-31T11:51:27;95910.31;;;21.07;55.78
706;BME280;21234;48.690;9.016;2023-07-31T11:53:57;95895.19;;;20.96;56.52
706;BME280;21234;48.690;9.016;2023-07-31T11:56:27;95889.97;;;20.86;56.30
706;BME280;21234;48.690;9.016;2023-07-31T11:58:58;95890.94;;;20.82;58.16
706;BME280;21234;48.690;9.016;2023-07-31T12:01:27;95883.19;;;20.75;56.91
706;BME280;21234;48.690;9.016;2023-07-31T12:03:55;95876.03;;;20.74;56.61
706;BME280;21234;48.690;9.016;2023-07-31T12:06:32;95879.25;;;20.59;55.30
706;BME280;21234;48.690;9.016;2023-07-31T12:09:01;95878.94;;;20.60;57.16
706;BME280;21234;48.690;9.016;2023-07-31T12:11:28;95882.50;;;20.61;57.64
706;BME280;21234;48.690;9.016;2023-07-31T12:13:56;95876.34;;;20.72;57.81
706;BME280;21234;48.690;9.016;2023-07-31T12:16:26;95873.59;;;20.72;56.87
706;BME280;21234;48.690;9.016;2023-07-31T12:18:53;95878.63;;;20.70;58.37
706;BME280;21234;48.690;9.016;2023-07-31T12:21:19;95884.81;;;20.76;56.62
706;BME280;21234;48.690;9.016;2023-07-31T12:23:46;95874.22;;;20.69;58.70
706;BME280;21234;48.690;9.016;2023-07-31T12:26:14;95872.94;;;20.75;60.47
706;BME280;21234;48.690;9.016;2023-07-31T12:28:42;95860.44;;;20.69;55.90
706;BME280;21234;48.690;9.016;2023-07-31T12:31:11;95865.47;;;20.67;58.24
706;BME280;21234;48.690;9.016;2023-07-31T12:33:40;95857.16;;;20.59;56.13
706;BME280;21234;48.690;9.016;2023-07-31T12:36:08;95848.72;;;20.55;57.06
706;BME280;21234;48.690;9.016;2023-07-31T12:38:35;95857.66;;;20.61;59.41
706;BME280;21234;48.690;9.016;2023-07-31T12:41:02;95851.97;;;20.74;58.45
706;BME280;21234;48.690;9.016;2023-07-31T12:43:29;95854.25;;;20.90;57.22
706;BME280;21234;48.690;9.016;2023-07-31T12:45:56;95840.09;;;21.00;57.94
706;BME280;21234;48.690;9.016;2023-07-31T12:48:24;95837.47;;;21.12;56.52
706;BME280;21234;48.690;9.016;2023-07-31T12:50:51;95835.59;;;21.51;59.56
706;BME280;21234;48.690;9.016;2023-07-31T12:53:18;95835.22;;;21.69;55.93
706;BME280;21234;48.690;9.016;2023-07-31T12:55:44;95826.88;;;21.78;55.05
706;BME280;21234;48.690;9.016;2023-07-31T12:58:11;95819.53;;;21.82;56.08
706;BME280;21234;48.690;9.016;2023-07-31T13:00:38;95808.72;;;22.06;55.76
706;BME280;21234;48.690;9.016;2023-07-31T13:03:05;95818.19;;;22.47;55.01
706;BME280;21234;48.690;9.016;2023-07-31T13:05:33;95812.19;;;22.24;54.22
706;BME280;21234;48.690;9.016;2023-07-31T13:07:59;95806.97;;;22.23;57.08
706;BME280;21234;48.690;9.016;2023-07-31T13:10:27;95815.13;;;22.19;56.97
706;BME280;21234;48.690;9.016;2023-07-31T13:12:54;95807.34;;;22.12;57.20
706;BME280;21234;48.690;9.016;2023-07-31T13:15:21;95799.59;;;22.06;55.04
706;BME280;21234;48.690;9.016;2023-07-31T13:17:48;95797.03;;;22.01;57.15
706;BME280;21234;48.690;9.016;2023-07-31T13:20:14;95805.31;;;22.01;58.26
706;BME280;21234;48.690;9.016;2023-07-31T13:22:42;95804.34;;;21.97;57.14
706;BME280;21234;48.690;9.016;2023-07-31T13:25:09;95805.81;;;22.03;58.48
706;BME280;21234;48.690;9.016;2023-07-31T13:27:36;95805.84;;;21.86;54.29
706;BME280;21234;48.690;9.016;2023-07-31T13:30:03;95800.16;;;21.82;54.16